createdAt,value
2023-10-26T00:01:08.921Z,10.60
2023-10-26T00:03:12.063Z,10.60
2023-10-26T00:05:15.485Z,10.60
2023-10-26T00:07:19.729Z,10.50
2023-10-26T00:09:23.122Z,10.50
2023-10-26T00:11:26.047Z,10.50
2023-10-26T00:13:28.939Z,10.50
2023-10-26T00:15:31.839Z,10.50
2023-10-26T00:17:34.969Z,10.50
2023-10-26T00:19:37.275Z,10.50
2023-10-26T00:21:40.516Z,10.50
2023-10-26T00:23:45.162Z,10.50
2023-10-26T00:25:48.060Z,10.60
2023-10-26T00:27:50.948Z,10.50
2023-10-26T00:29:53.860Z,10.50
2023-10-26T00:31:56.774Z,10.50
2023-10-26T00:33:59.719Z,10.50
2023-10-26T00:36:02.879Z,10.50
2023-10-26T00:38:05.815Z,10.50
2023-10-26T00:40:11.343Z,10.60
2023-10-26T00:42:14.239Z,10.50
2023-10-26T00:44:16.362Z,10.60
2023-10-26T00:46:19.257Z,10.60
2023-10-26T00:48:21.580Z,10.60
2023-10-26T00:50:24.605Z,10.60
2023-10-26T00:52:27.510Z,10.60
2023-10-26T00:54:29.551Z,10.60
2023-10-26T00:56:34.164Z,10.60
2023-10-26T00:58:37.044Z,10.60
2023-10-26T01:00:39.941Z,10.60
2023-10-26T01:02:42.876Z,10.60
2023-10-26T01:04:45.985Z,10.60
2023-10-26T01:06:49.154Z,10.50
2023-10-26T01:08:52.170Z,10.60
2023-10-26T01:10:55.145Z,10.60
2023-10-26T01:12:59.391Z,10.60
2023-10-26T01:15:01.342Z,10.60
2023-10-26T01:17:04.427Z,10.60
2023-10-26T01:19:07.576Z,10.60
2023-10-26T01:21:12.032Z,10.60
2023-10-26T01:23:16.289Z,10.60
2023-10-26T01:25:18.205Z,10.50
2023-10-26T01:27:21.093Z,10.60
2023-10-26T01:29:23.067Z,10.50
2023-10-26T01:31:25.933Z,10.60
2023-10-26T01:33:28.940Z,10.50
2023-10-26T01:35:39.473Z,10.60
2023-10-26T01:37:42.539Z,10.50
2023-10-26T01:39:46.795Z,10.60
2023-10-26T01:41:48.859Z,10.50
2023-10-26T01:43:51.859Z,10.50
2023-10-26T01:45:53.843Z,10.50
2023-10-26T01:47:56.863Z,10.50
2023-10-26T01:50:00.626Z,10.50
2023-10-26T01:52:02.594Z,10.50
2023-10-26T01:54:05.760Z,10.50
2023-10-26T01:56:10.159Z,10.60
2023-10-26T01:58:12.090Z,10.60
2023-10-26T02:00:15.764Z,10.50
2023-10-26T02:02:18.675Z,10.60
2023-10-26T02:04:21.542Z,10.50
2023-10-26T02:06:24.605Z,10.50
2023-10-26T02:08:27.607Z,10.50
2023-10-26T02:10:31.272Z,10.50
2023-10-26T02:12:34.578Z,10.50
2023-10-26T02:14:37.464Z,10.50
2023-10-26T02:16:40.370Z,10.50
2023-10-26T02:18:44.580Z,10.50
2023-10-26T02:20:47.597Z,10.50
2023-10-26T02:22:50.516Z,10.50
2023-10-26T02:24:53.459Z,10.50
2023-10-26T02:26:56.378Z,10.50
2023-10-26T02:29:00.619Z,10.50
2023-10-26T02:31:03.556Z,10.50
2023-10-26T02:33:05.553Z,10.50
2023-10-26T02:35:09.756Z,10.50
2023-10-26T02:37:12.639Z,10.50
2023-10-26T02:39:15.605Z,10.50
2023-10-26T02:41:18.557Z,10.50
2023-10-26T02:43:21.475Z,10.50
2023-10-26T02:45:24.847Z,10.50
2023-10-26T02:47:27.818Z,10.50
2023-10-26T02:49:31.985Z,10.50
2023-10-26T02:51:34.954Z,10.50
2023-10-26T02:53:37.843Z,10.50
2023-10-26T02:55:40.719Z,10.50
2023-10-26T02:57:43.641Z,10.50
2023-10-26T02:59:46.570Z,10.50
2023-10-26T03:01:50.816Z,10.50
2023-10-26T03:03:53.794Z,10.50
2023-10-26T03:05:59.796Z,10.50
2023-10-26T03:08:01.718Z,10.40
2023-10-26T03:10:06.334Z,10.50
2023-10-26T03:12:10.253Z,10.50
2023-10-26T03:14:13.177Z,10.50
2023-10-26T03:16:16.071Z,10.50
2023-10-26T03:18:20.394Z,10.50
2023-10-26T03:20:23.294Z,10.40
2023-10-26T03:22:25.242Z,10.50
2023-10-26T03:24:28.141Z,10.40
2023-10-26T03:26:31.478Z,10.40
2023-10-26T03:28:34.428Z,10.50
2023-10-26T03:30:37.323Z,10.50
2023-10-26T03:32:40.268Z,10.40
2023-10-26T03:34:45.041Z,10.40
2023-10-26T03:36:48.148Z,10.50
2023-10-26T03:38:51.738Z,10.40
2023-10-26T03:40:54.650Z,10.50
2023-10-26T03:42:57.551Z,10.50
2023-10-26T03:45:00.489Z,10.40
2023-10-26T03:47:02.428Z,10.50
2023-10-26T03:49:05.333Z,10.50
2023-10-26T03:51:09.586Z,10.40
2023-10-26T03:53:12.484Z,10.40
2023-10-26T03:55:15.532Z,10.40
2023-10-26T03:57:18.446Z,10.40
2023-10-26T03:59:20.440Z,10.30
2023-10-26T04:01:23.329Z,10.40
2023-10-26T04:03:26.304Z,10.40
2023-10-26T04:05:29.991Z,10.40
2023-10-26T04:07:34.660Z,10.30
2023-10-26T04:09:37.542Z,10.30
2023-10-26T04:11:39.420Z,10.30
2023-10-26T04:13:42.308Z,10.30
2023-10-26T04:15:45.209Z,10.30
2023-10-26T04:17:48.109Z,10.30
2023-10-26T04:19:50.022Z,10.30
2023-10-26T04:21:52.897Z,10.30
2023-10-26T04:23:57.137Z,10.30
2023-10-26T04:26:00.021Z,10.20
2023-10-26T04:28:01.912Z,10.20
2023-10-26T04:30:06.228Z,10.20
2023-10-26T04:32:10.113Z,10.20
2023-10-26T04:34:13.243Z,10.20
2023-10-26T04:36:16.155Z,10.20
2023-10-26T04:38:19.602Z,10.20
2023-10-26T04:40:23.832Z,10.20
2023-10-26T04:42:26.720Z,10.30
2023-10-26T04:44:29.609Z,10.20
2023-10-26T04:46:32.446Z,10.20
2023-10-26T04:48:34.717Z,10.20
2023-10-26T04:50:37.647Z,10.20
2023-10-26T04:52:40.525Z,10.20
2023-10-26T04:54:43.502Z,10.20
2023-10-26T04:56:47.878Z,10.20
2023-10-26T04:58:50.077Z,10.20
2023-10-26T05:00:52.950Z,10.20
2023-10-26T05:02:56.959Z,10.10
2023-10-26T05:04:59.824Z,10.20
2023-10-26T05:07:03.846Z,10.20
2023-10-26T05:09:06.861Z,10.10
2023-10-26T05:11:09.753Z,10.20
2023-10-26T05:13:13.975Z,10.20
2023-10-26T05:15:17.006Z,10.10
2023-10-26T05:17:19.994Z,10.10
2023-10-26T05:19:22.923Z,10.10
2023-10-26T05:21:25.906Z,10.10
2023-10-26T05:23:28.841Z,10.10
2023-10-26T05:25:32.633Z,10.10
2023-10-26T05:27:37.312Z,10.10
2023-10-26T05:29:41.921Z,10.10
2023-10-26T05:31:46.744Z,10.10
2023-10-26T05:33:49.748Z,10.10
2023-10-26T05:35:52.884Z,10.10
2023-10-26T05:37:54.813Z,10.10
2023-10-26T05:39:57.709Z,10.00
2023-10-26T05:42:00.620Z,10.10
2023-10-26T05:44:03.936Z,10.10
2023-10-26T05:46:08.365Z,10.10
2023-10-26T05:48:11.760Z,10.10
2023-10-26T05:50:14.732Z,10.10
2023-10-26T05:52:17.740Z,10.10
2023-10-26T05:54:20.771Z,10.00
2023-10-26T05:56:23.730Z,10.00
2023-10-26T05:58:26.014Z,10.00
2023-10-26T06:00:28.911Z,10.10
2023-10-26T06:02:33.189Z,10.00
2023-10-26T06:04:36.085Z,10.00
2023-10-26T06:06:38.618Z,10.00
2023-10-26T06:08:41.590Z,10.00
2023-10-26T06:10:44.470Z,10.00
2023-10-26T06:12:47.379Z,10.00
2023-10-26T06:14:50.256Z,10.00
2023-10-26T06:16:52.222Z,10.00
2023-10-26T06:18:56.435Z,10.00
2023-10-26T06:21:00.229Z,10.00
2023-10-26T06:23:03.577Z,10.00
2023-10-26T06:25:07.345Z,10.00
2023-10-26T06:27:10.302Z,10.00
2023-10-26T06:29:13.209Z,9.90
2023-10-26T06:31:16.427Z,10.00
2023-10-26T06:33:19.331Z,10.00
2023-10-26T06:35:23.825Z,10.00
2023-10-26T06:37:26.724Z,10.00
2023-10-26T06:39:29.669Z,10.00
2023-10-26T06:41:31.605Z,10.00
2023-10-26T06:43:34.471Z,10.00
2023-10-26T06:45:37.391Z,10.00
2023-10-26T06:48:00.331Z,10.00
2023-10-26T06:50:03.288Z,10.00
2023-10-26T06:52:07.840Z,10.00
2023-10-26T06:54:11.086Z,10.10
2023-10-26T06:56:14.104Z,10.00
2023-10-26T06:58:16.002Z,10.00
2023-10-26T07:00:19.324Z,10.10
2023-10-26T07:02:24.265Z,10.10
2023-10-26T07:04:27.401Z,10.00
2023-10-26T07:06:30.475Z,10.00
2023-10-26T07:08:35.497Z,10.10
2023-10-26T07:10:40.989Z,10.00
2023-10-26T07:12:43.383Z,10.10
2023-10-26T07:14:46.268Z,10.00
2023-10-26T07:16:49.383Z,10.00
2023-10-26T07:18:52.340Z,10.00
2023-10-26T07:20:55.285Z,10.00
2023-10-26T07:22:58.222Z,10.00
2023-10-26T07:25:03.217Z,10.00
2023-10-26T07:27:06.496Z,10.00
2023-10-26T07:29:09.411Z,10.10
2023-10-26T07:31:18.390Z,10.00
2023-10-26T07:33:21.491Z,10.10
2023-10-26T07:35:24.508Z,10.10
2023-10-26T07:37:26.478Z,10.00
2023-10-26T07:39:46.672Z,10.10
2023-10-26T07:42:06.242Z,10.10
2023-10-26T07:44:11.527Z,10.10
2023-10-26T07:46:15.143Z,10.10
2023-10-26T07:48:18.079Z,10.10
2023-10-26T07:50:21.952Z,10.20
2023-10-26T07:52:25.334Z,10.20
2023-10-26T07:54:28.272Z,10.20
2023-10-26T07:56:32.032Z,10.20
2023-10-26T07:58:36.283Z,10.20
2023-10-26T08:00:39.448Z,10.20
2023-10-26T08:02:41.691Z,10.20
2023-10-26T08:04:45.206Z,10.30
2023-10-26T08:06:47.416Z,10.30
2023-10-26T08:08:50.640Z,10.30
2023-10-26T08:10:53.619Z,10.30
2023-10-26T08:12:56.526Z,10.30
2023-10-26T08:16:11.746Z,10.30
2023-10-26T08:17:23.688Z,10.30
2023-10-26T08:19:26.855Z,10.30
2023-10-26T08:21:29.736Z,10.30
2023-10-26T08:23:34.056Z,10.30
2023-10-26T08:25:37.740Z,10.30
2023-10-26T08:27:43.683Z,10.30
2023-10-26T08:29:46.643Z,10.30
2023-10-26T08:31:50.953Z,10.30
2023-10-26T08:33:53.883Z,10.30
2023-10-26T08:35:56.773Z,10.30
2023-10-26T08:37:59.735Z,10.40
2023-10-26T08:40:04.068Z,10.30
2023-10-26T08:42:06.293Z,10.30
2023-10-26T08:44:09.950Z,10.30
2023-10-26T08:46:12.976Z,10.30
2023-10-26T08:48:18.455Z,10.40
2023-10-26T08:50:22.229Z,10.40
2023-10-26T08:52:25.207Z,10.40
2023-10-26T08:54:28.415Z,10.40
2023-10-26T08:56:31.355Z,10.30
2023-10-26T08:58:34.630Z,10.40
2023-10-26T09:00:38.010Z,10.40
2023-10-26T09:02:41.193Z,10.30
2023-10-26T09:05:03.718Z,10.40
2023-10-26T09:07:06.805Z,10.40
2023-10-26T09:09:09.678Z,10.40
2023-10-26T09:11:22.226Z,10.40
2023-10-26T09:13:26.310Z,10.40
2023-10-26T09:15:29.286Z,10.50
2023-10-26T09:17:33.280Z,10.50
2023-10-26T09:19:40.001Z,10.50
2023-10-26T09:21:54.823Z,10.50
2023-10-26T09:23:57.548Z,10.50
2023-10-26T09:26:00.774Z,10.60
2023-10-26T09:28:04.922Z,10.60
2023-10-26T09:30:08.723Z,10.60
2023-10-26T09:32:11.827Z,10.60
2023-10-26T09:34:14.832Z,10.70
2023-10-26T09:36:18.404Z,10.70
2023-10-26T09:38:36.338Z,10.70
2023-10-26T09:40:39.856Z,10.80
2023-10-26T09:42:41.876Z,10.80
2023-10-26T09:44:45.082Z,10.80
2023-10-26T09:46:48.055Z,10.80
2023-10-26T09:48:52.761Z,10.80
2023-10-26T09:50:55.662Z,10.80
2023-10-26T09:52:58.619Z,10.70
2023-10-26T09:55:01.905Z,10.80
2023-10-26T09:57:06.739Z,10.80
2023-10-26T09:59:09.648Z,10.90
2023-10-26T10:01:31.450Z,10.80
2023-10-26T10:03:34.415Z,10.90
2023-10-26T10:05:37.360Z,10.80
2023-10-26T10:07:43.805Z,11.00
2023-10-26T10:10:07.242Z,10.90
2023-10-26T10:12:32.073Z,10.90
2023-10-26T10:15:22.608Z,10.90
2023-10-26T10:17:24.904Z,11.00
2023-10-26T10:19:31.538Z,10.90
2023-10-26T10:21:36.402Z,11.00
2023-10-26T10:23:39.424Z,11.00
2023-10-26T10:26:20.123Z,11.00
2023-10-26T10:28:55.654Z,11.00
2023-10-26T10:30:58.457Z,11.00
2023-10-26T10:33:01.479Z,11.00
2023-10-26T10:35:04.559Z,11.10
2023-10-26T10:37:12.991Z,11.00
2023-10-26T10:39:23.603Z,11.00
2023-10-26T10:41:28.067Z,11.00
2023-10-26T10:43:32.058Z,11.10
2023-10-26T10:45:37.952Z,11.00
2023-10-26T10:47:41.104Z,11.10
2023-10-26T10:49:44.047Z,11.10
2023-10-26T10:51:46.150Z,11.10
2023-10-26T10:53:51.379Z,11.10
2023-10-26T10:55:53.298Z,11.10
2023-10-26T10:57:58.385Z,11.10
2023-10-26T11:00:01.412Z,11.00
2023-10-26T11:02:10.840Z,11.00
2023-10-26T11:04:15.208Z,11.00
2023-10-26T11:06:18.586Z,11.00
2023-10-26T11:08:22.022Z,11.00
2023-10-26T11:10:24.935Z,11.00
2023-10-26T11:12:28.034Z,11.00
2023-10-26T11:14:32.324Z,11.00
2023-10-26T11:16:34.538Z,10.90
2023-10-26T11:18:37.534Z,11.00
2023-10-26T11:20:40.019Z,10.90
2023-10-26T11:22:42.923Z,10.90
2023-10-26T11:24:46.357Z,10.90
2023-10-26T11:27:06.550Z,10.90
2023-10-26T11:29:18.731Z,10.80
2023-10-26T11:31:42.621Z,10.90
2023-10-26T11:33:45.653Z,10.90
2023-10-26T11:35:48.929Z,10.90
2023-10-26T11:37:55.252Z,10.90
2023-10-26T11:39:58.188Z,10.80
2023-10-26T11:42:01.130Z,10.80
2023-10-26T11:44:04.441Z,10.80
2023-10-26T11:46:07.069Z,10.80
2023-10-26T11:48:11.469Z,10.80
2023-10-26T11:50:22.863Z,10.80
2023-10-26T11:52:25.830Z,10.80
2023-10-26T11:54:28.839Z,10.80
2023-10-26T11:56:31.781Z,10.90
2023-10-26T11:58:35.297Z,10.90
2023-10-26T12:00:38.252Z,10.80
2023-10-26T12:02:40.314Z,10.80
2023-10-26T12:04:44.586Z,10.80
2023-10-26T12:06:48.133Z,10.90
2023-10-26T12:08:51.061Z,10.90
2023-10-26T12:10:52.972Z,10.90
2023-10-26T12:12:55.973Z,10.90
2023-10-26T12:14:58.100Z,10.90
2023-10-26T12:17:00.982Z,10.90
2023-10-26T12:19:03.908Z,10.90
2023-10-26T12:21:08.129Z,10.90
2023-10-26T12:23:10.023Z,10.90
2023-10-26T12:25:13.061Z,11.00
2023-10-26T12:27:17.555Z,11.00
2023-10-26T12:29:20.468Z,10.90
2023-10-26T12:31:23.468Z,11.00
2023-10-26T12:33:28.889Z,10.90
2023-10-26T12:35:32.015Z,10.90
2023-10-26T12:37:38.457Z,10.90
2023-10-26T12:39:41.400Z,10.80
2023-10-26T12:41:44.322Z,10.80
2023-10-26T12:43:47.230Z,10.80
2023-10-26T12:45:50.133Z,10.90
2023-10-26T12:47:53.101Z,10.90
2023-10-26T12:49:56.017Z,10.90
2023-10-26T12:51:58.022Z,10.90
2023-10-26T12:54:09.252Z,10.80
2023-10-26T12:56:13.577Z,10.90
2023-10-26T12:58:16.491Z,10.80
2023-10-26T13:00:19.784Z,10.90
2023-10-26T13:02:21.710Z,10.90
2023-10-26T13:04:24.608Z,10.90
2023-10-26T13:06:27.539Z,10.90
2023-10-26T13:08:30.415Z,10.90
2023-10-26T13:10:34.695Z,10.90
2023-10-26T13:12:40.158Z,10.90
2023-10-26T13:14:43.397Z,10.90
2023-10-26T13:16:56.996Z,10.90
2023-10-26T13:19:01.301Z,10.90
2023-10-26T13:21:04.286Z,10.90
2023-10-26T13:23:07.172Z,10.90
2023-10-26T13:25:10.357Z,10.90
2023-10-26T13:27:14.642Z,11.00
2023-10-26T13:29:17.555Z,11.00
2023-10-26T13:31:20.696Z,11.00
2023-10-26T13:33:24.047Z,11.00
2023-10-26T13:35:30.925Z,10.90
2023-10-26T13:37:33.878Z,11.00
2023-10-26T13:39:35.806Z,11.00
2023-10-26T13:41:38.731Z,11.00
2023-10-26T13:43:42.976Z,10.90
2023-10-26T13:45:46.267Z,10.90
2023-10-26T13:47:49.171Z,10.90
2023-10-26T13:49:51.094Z,10.90
2023-10-26T13:51:54.009Z,10.90
2023-10-26T13:53:56.935Z,10.90
2023-10-26T13:56:02.087Z,10.90
2023-10-26T13:58:06.084Z,11.00
2023-10-26T14:00:12.992Z,10.90
2023-10-26T14:02:18.682Z,10.80
2023-10-26T14:04:21.701Z,10.90
2023-10-26T14:06:27.688Z,10.80
2023-10-26T14:08:32.856Z,10.80
2023-10-26T14:10:36.253Z,10.80
2023-10-26T14:12:39.159Z,10.80
2023-10-26T14:14:42.128Z,10.80
2023-10-26T14:16:45.727Z,10.80
2023-10-26T14:18:48.824Z,10.80
2023-10-26T14:20:51.926Z,10.80
2023-10-26T14:22:54.855Z,10.70
2023-10-26T14:24:57.932Z,10.70
2023-10-26T14:27:00.871Z,10.70
2023-10-26T14:29:03.749Z,10.70
2023-10-26T14:31:06.716Z,10.80
2023-10-26T14:33:10.984Z,10.80
2023-10-26T14:35:14.610Z,10.80
2023-10-26T14:37:17.594Z,10.80
2023-10-26T14:39:20.672Z,10.90
2023-10-26T14:41:23.568Z,10.80
2023-10-26T14:43:26.588Z,10.80
2023-10-26T14:45:29.671Z,10.90
2023-10-26T14:47:32.601Z,10.90
2023-10-26T14:49:37.018Z,10.90
2023-10-26T14:51:41.531Z,10.90
2023-10-26T14:53:44.477Z,10.80
2023-10-26T14:55:47.378Z,10.90
2023-10-26T14:57:50.297Z,10.90
2023-10-26T14:59:52.214Z,10.90
2023-10-26T15:01:55.079Z,10.80
2023-10-26T15:03:59.359Z,10.80
2023-10-26T15:06:03.718Z,10.70
2023-10-26T15:08:06.977Z,10.80
2023-10-26T15:10:24.285Z,10.80
2023-10-26T15:12:29.517Z,10.80
2023-10-26T15:14:32.438Z,10.70
2023-10-26T15:16:35.358Z,10.80
2023-10-26T15:18:38.891Z,10.70
2023-10-26T15:20:41.810Z,10.70
2023-10-26T15:22:46.048Z,10.80
2023-10-26T15:24:48.788Z,10.70
2023-10-26T15:26:52.043Z,10.80
2023-10-26T15:28:54.960Z,10.70
2023-10-26T15:30:57.850Z,10.70
2023-10-26T15:33:00.827Z,10.70
2023-10-26T15:35:03.767Z,10.70
2023-10-26T15:37:06.733Z,10.70
2023-10-26T15:39:11.570Z,10.70
2023-10-26T15:41:14.486Z,10.70
2023-10-26T15:43:17.368Z,10.70
2023-10-26T15:45:21.781Z,10.60
2023-10-26T15:47:25.486Z,10.60
2023-10-26T15:49:31.848Z,10.60
2023-10-26T15:51:37.376Z,10.60
2023-10-26T15:53:40.237Z,10.60
2023-10-26T15:55:44.451Z,10.60
2023-10-26T15:57:47.430Z,10.60
2023-10-26T15:59:50.363Z,10.60
2023-10-26T16:01:53.399Z,10.60
2023-10-26T16:03:57.032Z,10.60
2023-10-26T16:06:06.748Z,10.60
2023-10-26T16:08:09.630Z,10.60
2023-10-26T16:10:12.854Z,10.60
2023-10-26T16:12:17.371Z,10.60
2023-10-26T16:14:19.322Z,10.60
2023-10-26T16:16:22.482Z,10.60
2023-10-26T16:18:25.435Z,10.60
2023-10-26T16:20:28.534Z,10.60
2023-10-26T16:22:31.438Z,10.60
2023-10-26T16:24:34.350Z,10.60
2023-10-26T16:26:36.299Z,10.60
2023-10-26T16:28:40.594Z,10.60
2023-10-26T16:30:43.717Z,10.60
2023-10-26T16:32:46.672Z,10.60
2023-10-26T16:34:49.552Z,10.60
2023-10-26T16:36:53.446Z,10.60
2023-10-26T16:38:56.476Z,10.60
2023-10-26T16:40:59.730Z,10.50
2023-10-26T16:43:02.698Z,10.60
2023-10-26T16:45:08.155Z,10.60
2023-10-26T16:47:11.058Z,10.60
2023-10-26T16:49:13.986Z,10.60
2023-10-26T16:51:17.170Z,10.60
2023-10-26T16:53:30.571Z,10.60
2023-10-26T16:55:34.574Z,10.60
2023-10-26T16:57:37.505Z,10.60
2023-10-26T16:59:40.401Z,10.60
2023-10-26T17:01:44.731Z,10.50
2023-10-26T17:03:46.801Z,10.50
2023-10-26T17:05:49.808Z,10.50
2023-10-26T17:07:51.857Z,10.60
2023-10-26T17:09:54.813Z,10.50
2023-10-26T17:11:57.753Z,10.50
2023-10-26T17:14:00.631Z,10.50
2023-10-26T17:16:03.633Z,10.50
2023-10-26T17:18:06.947Z,10.50
2023-10-26T17:20:10.596Z,10.50
2023-10-26T17:22:13.504Z,10.50
2023-10-26T17:24:16.412Z,10.50
2023-10-26T17:26:19.384Z,10.50
2023-10-26T17:28:22.259Z,10.50
2023-10-26T17:30:25.159Z,10.50
2023-10-26T17:32:27.074Z,10.50
2023-10-26T17:34:31.415Z,10.50
2023-10-26T17:36:34.303Z,10.50
2023-10-26T17:38:37.202Z,10.50
2023-10-26T17:40:40.074Z,10.50
2023-10-26T17:42:43.230Z,10.50
2023-10-26T17:44:45.175Z,10.40
2023-10-26T17:46:48.135Z,10.50
2023-10-26T17:48:51.197Z,10.50
2023-10-26T17:50:55.463Z,10.40
2023-10-26T17:52:58.379Z,10.50
2023-10-26T17:55:03.461Z,10.50
2023-10-26T17:57:07.074Z,10.40
2023-10-26T17:59:09.973Z,10.50
2023-10-26T18:01:13.505Z,10.50
2023-10-26T18:03:16.489Z,10.50
2023-10-26T18:05:19.365Z,10.50
2023-10-26T18:07:23.676Z,10.50
2023-10-26T18:09:25.570Z,10.50
2023-10-26T18:11:28.515Z,10.50
2023-10-26T18:13:31.769Z,10.40
2023-10-26T18:15:35.182Z,10.50
2023-10-26T18:17:38.121Z,10.50
2023-10-26T18:19:40.998Z,10.50
2023-10-26T18:21:44.059Z,10.50
2023-10-26T18:23:48.327Z,10.50
2023-10-26T18:25:57.750Z,10.50
2023-10-26T18:28:00.676Z,10.50
2023-10-26T18:30:03.923Z,10.50
2023-10-26T18:32:09.972Z,10.50
2023-10-26T18:34:13.909Z,10.50
2023-10-26T18:36:17.442Z,10.50
2023-10-26T18:38:19.359Z,10.50
2023-10-26T18:40:24.091Z,10.50
2023-10-26T18:42:26.980Z,10.50
2023-10-26T18:44:29.883Z,10.50
2023-10-26T18:46:31.963Z,10.50
2023-10-26T18:48:36.338Z,10.50
2023-10-26T18:50:39.242Z,10.50
2023-10-26T18:52:42.117Z,10.50
2023-10-26T18:54:45.026Z,10.50
2023-10-26T18:56:48.852Z,10.50
2023-10-26T18:58:51.768Z,10.50
2023-10-26T19:00:54.764Z,10.50
2023-10-26T19:02:57.736Z,10.50
2023-10-26T19:05:01.342Z,10.50
2023-10-26T19:07:05.175Z,10.50
2023-10-26T19:09:08.250Z,10.50
2023-10-26T19:11:11.154Z,10.50
2023-10-26T19:13:15.230Z,10.50
2023-10-26T19:15:18.426Z,10.40
2023-10-26T19:17:21.331Z,10.50
2023-10-26T19:19:24.317Z,10.50
2023-10-26T19:21:28.096Z,10.50
2023-10-26T19:23:31.631Z,10.50
2023-10-26T19:25:34.543Z,10.50
2023-10-26T19:27:37.433Z,10.50
2023-10-26T19:29:41.657Z,10.50
2023-10-26T19:31:44.667Z,10.50
2023-10-26T19:33:49.197Z,10.50
2023-10-26T19:35:52.239Z,10.50
2023-10-26T19:37:55.258Z,10.60
2023-10-26T19:39:58.164Z,10.60
2023-10-26T19:42:01.079Z,10.50
2023-10-26T19:44:04.517Z,10.50
2023-10-26T19:46:08.864Z,10.50
2023-10-26T19:48:11.787Z,10.50
2023-10-26T19:50:14.709Z,10.50
2023-10-26T19:52:16.690Z,10.50
2023-10-26T19:54:22.007Z,10.50
2023-10-26T19:56:24.943Z,10.50
2023-10-26T19:58:27.965Z,10.50
2023-10-26T20:00:31.068Z,10.40
2023-10-26T20:02:35.361Z,10.40
2023-10-26T20:04:38.374Z,10.40
2023-10-26T20:06:41.318Z,10.40
2023-10-26T20:08:43.221Z,10.40
2023-10-26T20:10:47.220Z,10.40
2023-10-26T20:12:50.140Z,10.40
2023-10-26T20:14:53.051Z,10.40
2023-10-26T20:16:55.953Z,10.40
2023-10-26T20:19:01.475Z,10.40
2023-10-26T20:21:04.588Z,10.40
2023-10-26T20:23:06.478Z,10.30
2023-10-26T20:25:10.023Z,10.30
2023-10-26T20:27:12.871Z,10.40
2023-10-26T20:29:15.711Z,10.30
2023-10-26T20:31:18.629Z,10.30
2023-10-26T20:33:22.431Z,10.30
2023-10-26T20:35:26.632Z,10.20
2023-10-26T20:37:29.627Z,10.20
2023-10-26T20:39:33.401Z,10.10
2023-10-26T20:41:36.258Z,10.10
2023-10-26T20:43:39.100Z,10.00
2023-10-26T20:45:42.005Z,9.90
2023-10-26T20:47:44.884Z,9.90
2023-10-26T20:49:50.031Z,9.90
2023-10-26T20:51:54.219Z,9.90
2023-10-26T20:53:57.068Z,9.80
2023-10-26T20:55:58.949Z,9.70
2023-10-26T20:58:01.819Z,9.70
2023-10-26T21:00:05.381Z,9.60
2023-10-26T21:02:08.264Z,9.60
2023-10-26T21:04:11.178Z,9.60
2023-10-26T21:06:13.453Z,9.60
2023-10-26T21:08:17.681Z,9.50
2023-10-26T21:10:20.737Z,9.50
2023-10-26T21:12:23.859Z,9.50
2023-10-26T21:14:26.805Z,9.50
2023-10-26T21:16:29.807Z,9.50
2023-10-26T21:18:32.784Z,9.50
2023-10-26T21:20:36.368Z,9.50
2023-10-26T21:22:39.480Z,9.60
2023-10-26T21:24:47.043Z,9.60
2023-10-26T21:26:49.596Z,9.60
2023-10-26T21:28:55.339Z,9.60
2023-10-26T21:30:58.604Z,9.60
2023-10-26T21:33:01.605Z,9.70
2023-10-26T21:35:04.782Z,9.70
2023-10-26T21:37:08.170Z,9.70
2023-10-26T21:39:11.733Z,9.70
2023-10-26T21:41:15.973Z,9.80
2023-10-26T21:43:17.927Z,9.80
2023-10-26T21:45:20.862Z,9.80
2023-10-26T21:47:23.902Z,9.80
2023-10-26T21:49:26.799Z,9.80
2023-10-26T21:51:29.660Z,9.80
2023-10-26T21:53:32.542Z,9.80
2023-10-26T21:55:35.724Z,9.90
2023-10-26T21:57:40.043Z,9.90
2023-10-26T21:59:43.580Z,9.90
2023-10-26T22:01:46.890Z,9.90
2023-10-26T22:04:06.407Z,9.90
2023-10-26T22:06:11.790Z,9.80
2023-10-26T22:08:14.365Z,9.90
2023-10-26T22:10:18.432Z,9.80
2023-10-26T22:12:21.406Z,9.90
2023-10-26T22:14:25.633Z,9.80
2023-10-26T22:16:28.550Z,9.80
2023-10-26T22:18:31.561Z,9.80
2023-10-26T22:20:36.730Z,9.80
2023-10-26T22:22:39.787Z,9.90
2023-10-26T22:24:42.650Z,9.90
2023-10-26T22:26:45.537Z,9.90
2023-10-26T22:28:48.410Z,9.90
2023-10-26T22:30:52.746Z,9.90
2023-10-26T22:32:55.722Z,9.80
2023-10-26T22:34:58.659Z,9.80
2023-10-26T22:37:01.583Z,9.70
2023-10-26T22:39:05.425Z,9.70
2023-10-26T22:41:11.497Z,9.60
2023-10-26T22:43:13.532Z,9.60
2023-10-26T22:45:16.484Z,9.50
2023-10-26T22:47:20.982Z,9.50
2023-10-26T22:49:22.920Z,9.50
2023-10-26T22:51:25.885Z,9.50
2023-10-26T22:53:28.749Z,9.40
2023-10-26T22:55:34.790Z,9.40
2023-10-26T22:57:36.688Z,9.30
2023-10-26T22:59:39.569Z,9.30
2023-10-26T23:01:42.468Z,9.30
2023-10-26T23:03:46.771Z,9.20
2023-10-26T23:05:49.732Z,9.10
2023-10-26T23:07:54.061Z,9.10
2023-10-26T23:09:57.090Z,9.10
2023-10-26T23:12:00.071Z,9.00
2023-10-26T23:14:02.955Z,9.00
2023-10-26T23:16:06.300Z,9.00
2023-10-26T23:18:09.287Z,9.00
2023-10-26T23:22:16.384Z,8.80
2023-10-26T23:24:19.295Z,8.80
2023-10-26T23:26:22.177Z,8.80
2023-10-26T23:28:25.659Z,8.70
2023-10-26T23:30:28.662Z,8.70
2023-10-26T23:32:31.822Z,8.70
2023-10-26T23:34:34.832Z,8.70
2023-10-26T23:36:39.155Z,8.70
2023-10-26T23:38:41.126Z,8.80
2023-10-26T23:40:44.488Z,8.70
2023-10-26T23:42:47.392Z,8.70
2023-10-26T23:44:50.274Z,8.70
2023-10-26T23:46:53.161Z,8.60
2023-10-26T23:48:56.115Z,8.50
2023-10-26T23:50:59.039Z,8.50
2023-10-26T23:53:03.526Z,8.50
2023-10-26T23:55:07.299Z,8.50
2023-10-26T23:57:10.209Z,8.50
2023-10-26T23:59:13.070Z,8.50
